sensor_id;sensor_type;location;lat;lon;timestamp;P1;durP1;ratioP1;P2;durP2;ratioP2
32637;SDS011;19045;52.268;10.506;2023-04-16T00:01:55;51.03;;;36.00;;
32637;SDS011;19045;52.268;10.506;2023-04-16T00:04:22;47.28;;;35.25;;
32637;SDS011;19045;52.268;10.506;2023-04-16T00:06:48;50.10;;;36.30;;
32637;SDS011;19045;52.268;10.506;2023-04-16T00:09:16;50.00;;;35.10;;
32637;SDS011;19045;52.268;10.506;2023-04-16T00:11:43;50.97;;;38.53;;
32637;SDS011;19045;52.268;10.506;2023-04-16T00:14:09;48.63;;;34.95;;
32637;SDS011;19045;52.268;10.506;2023-04-16T00:16:36;48.03;;;34.92;;
32637;SDS011;19045;52.268;10.506;2023-04-16T00:19:03;51.67;;;35.90;;
32637;SDS011;19045;52.268;10.506;2023-04-16T00:21:30;53.72;;;36.28;;
32637;SDS011;19045;52.268;10.506;2023-04-16T00:23:56;49.65;;;36.80;;
32637;SDS011;19045;52.268;10.506;2023-04-16T00:26:25;52.17;;;36.38;;
32637;SDS011;19045;52.268;10.506;2023-04-16T00:28:52;62.88;;;36.95;;
32637;SDS011;19045;52.268;10.506;2023-04-16T00:31:25;53.28;;;36.63;;
32637;SDS011;19045;52.268;10.506;2023-04-16T00:33:53;51.47;;;36.42;;
32637;SDS011;19045;52.268;10.506;2023-04-16T00:36:19;55.75;;;36.15;;
32637;SDS011;19045;52.268;10.506;2023-04-16T00:38:46;51.90;;;34.53;;
32637;SDS011;19045;52.268;10.506;2023-04-16T00:41:12;53.22;;;35.45;;
32637;SDS011;19045;52.268;10.506;2023-04-16T00:43:40;51.90;;;35.75;;
32637;SDS011;19045;52.268;10.506;2023-04-16T00:46:07;47.28;;;35.08;;
32637;SDS011;19045;52.268;10.506;2023-04-16T00:48:34;54.60;;;35.22;;
32637;SDS011;19045;52.268;10.506;2023-04-16T00:51:03;46.17;;;34.17;;
32637;SDS011;19045;52.268;10.506;2023-04-16T00:53:31;53.58;;;37.17;;
32637;SDS011;19045;52.268;10.506;2023-04-16T00:55:58;51.17;;;36.75;;
32637;SDS011;19045;52.268;10.506;2023-04-16T00:58:24;56.83;;;38.28;;
32637;SDS011;19045;52.268;10.506;2023-04-16T01:00:53;51.78;;;37.03;;
32637;SDS011;19045;52.268;10.506;2023-04-16T01:03:20;54.10;;;37.10;;
32637;SDS011;19045;52.268;10.506;2023-04-16T01:05:47;53.55;;;38.13;;
32637;SDS011;19045;52.268;10.506;2023-04-16T01:08:15;55.80;;;38.60;;
32637;SDS011;19045;52.268;10.506;2023-04-16T01:10:42;55.58;;;37.83;;
32637;SDS011;19045;52.268;10.506;2023-04-16T01:13:09;56.95;;;37.70;;
32637;SDS011;19045;52.268;10.506;2023-04-16T01:15:35;56.40;;;38.92;;
32637;SDS011;19045;52.268;10.506;2023-04-16T01:18:11;56.45;;;37.60;;
32637;SDS011;19045;52.268;10.506;2023-04-16T01:20:40;60.00;;;37.22;;
32637;SDS011;19045;52.268;10.506;2023-04-16T01:23:07;61.58;;;38.97;;
32637;SDS011;19045;52.268;10.506;2023-04-16T01:25:33;58.30;;;37.88;;
32637;SDS011;19045;52.268;10.506;2023-04-16T01:28:00;52.65;;;37.83;;
32637;SDS011;19045;52.268;10.506;2023-04-16T01:30:26;62.45;;;37.97;;
32637;SDS011;19045;52.268;10.506;2023-04-16T01:32:53;64.10;;;37.72;;
32637;SDS011;19045;52.268;10.506;2023-04-16T01:35:20;58.83;;;37.28;;
32637;SDS011;19045;52.268;10.506;2023-04-16T01:37:48;56.15;;;36.00;;
32637;SDS011;19045;52.268;10.506;2023-04-16T01:40:15;53.88;;;35.55;;
32637;SDS011;19045;52.268;10.506;2023-04-16T01:42:41;56.78;;;36.92;;
32637;SDS011;19045;52.268;10.506;2023-04-16T01:45:08;60.20;;;39.00;;
32637;SDS011;19045;52.268;10.506;2023-04-16T01:47:36;56.78;;;37.55;;
32637;SDS011;19045;52.268;10.506;2023-04-16T01:50:03;59.03;;;36.85;;
32637;SDS011;19045;52.268;10.506;2023-04-16T01:52:30;55.75;;;37.10;;
32637;SDS011;19045;52.268;10.506;2023-04-16T01:54:58;57.40;;;37.17;;
32637;SDS011;19045;52.268;10.506;2023-04-16T01:57:25;54.35;;;34.92;;
32637;SDS011;19045;52.268;10.506;2023-04-16T01:59:51;58.03;;;34.67;;
32637;SDS011;19045;52.268;10.506;2023-04-16T02:02:18;52.30;;;34.63;;
32637;SDS011;19045;52.268;10.506;2023-04-16T02:04:45;58.67;;;36.15;;
32637;SDS011;19045;52.268;10.506;2023-04-16T02:07:11;53.13;;;36.53;;
32637;SDS011;19045;52.268;10.506;2023-04-16T02:09:39;55.15;;;35.00;;
32637;SDS011;19045;52.268;10.506;2023-04-16T02:12:07;48.72;;;34.13;;
32637;SDS011;19045;52.268;10.506;2023-04-16T02:14:35;60.22;;;36.33;;
32637;SDS011;19045;52.268;10.506;2023-04-16T02:17:02;55.20;;;36.00;;
32637;SDS011;19045;52.268;10.506;2023-04-16T02:19:28;52.03;;;35.33;;
32637;SDS011;19045;52.268;10.506;2023-04-16T02:21:55;59.97;;;35.28;;
32637;SDS011;19045;52.268;10.506;2023-04-16T02:24:22;54.15;;;35.40;;
32637;SDS011;19045;52.268;10.506;2023-04-16T02:26:48;56.60;;;36.38;;
32637;SDS011;19045;52.268;10.506;2023-04-16T02:29:16;51.50;;;33.97;;
32637;SDS011;19045;52.268;10.506;2023-04-16T02:31:43;54.03;;;35.85;;
32637;SDS011;19045;52.268;10.506;2023-04-16T02:34:10;54.40;;;34.70;;
32637;SDS011;19045;52.268;10.506;2023-04-16T02:36:37;56.38;;;33.70;;
32637;SDS011;19045;52.268;10.506;2023-04-16T02:39:04;50.40;;;32.63;;
32637;SDS011;19045;52.268;10.506;2023-04-16T02:41:31;55.75;;;34.75;;
32637;SDS011;19045;52.268;10.506;2023-04-16T02:43:57;51.67;;;34.95;;
32637;SDS011;19045;52.268;10.506;2023-04-16T02:46:25;51.17;;;34.88;;
32637;SDS011;19045;52.268;10.506;2023-04-16T02:48:53;46.25;;;32.42;;
32637;SDS011;19045;52.268;10.506;2023-04-16T02:51:19;52.13;;;34.70;;
32637;SDS011;19045;52.268;10.506;2023-04-16T02:53:46;54.75;;;34.63;;
32637;SDS011;19045;52.268;10.506;2023-04-16T02:56:12;56.55;;;34.92;;
32637;SDS011;19045;52.268;10.506;2023-04-16T02:58:39;53.17;;;35.08;;
32637;SDS011;19045;52.268;10.506;2023-04-16T03:01:05;51.80;;;33.83;;
32637;SDS011;19045;52.268;10.506;2023-04-16T03:03:33;54.92;;;34.97;;
32637;SDS011;19045;52.268;10.506;2023-04-16T03:06:00;54.08;;;35.42;;
32637;SDS011;19045;52.268;10.506;2023-04-16T03:08:27;56.60;;;36.53;;
32637;SDS011;19045;52.268;10.506;2023-04-16T03:10:53;60.83;;;37.38;;
32637;SDS011;19045;52.268;10.506;2023-04-16T03:13:20;56.55;;;35.58;;
32637;SDS011;19045;52.268;10.506;2023-04-16T03:15:47;55.55;;;36.25;;
32637;SDS011;19045;52.268;10.506;2023-04-16T03:18:14;59.67;;;36.25;;
32637;SDS011;19045;52.268;10.506;2023-04-16T03:20:42;60.03;;;35.92;;
32637;SDS011;19045;52.268;10.506;2023-04-16T03:23:09;56.17;;;35.13;;
32637;SDS011;19045;52.268;10.506;2023-04-16T03:25:36;57.13;;;35.40;;
32637;SDS011;19045;52.268;10.506;2023-04-16T03:28:04;55.80;;;34.13;;
32637;SDS011;19045;52.268;10.506;2023-04-16T03:30:31;53.17;;;34.70;;
32637;SDS011;19045;52.268;10.506;2023-04-16T03:32:57;54.60;;;33.95;;
32637;SDS011;19045;52.268;10.506;2023-04-16T03:35:24;59.78;;;36.10;;
32637;SDS011;19045;52.268;10.506;2023-04-16T03:37:52;56.03;;;36.55;;
32637;SDS011;19045;52.268;10.506;2023-04-16T03:40:18;55.17;;;35.17;;
32637;SDS011;19045;52.268;10.506;2023-04-16T03:42:45;57.60;;;34.67;;
32637;SDS011;19045;52.268;10.506;2023-04-16T03:45:11;58.65;;;35.97;;
32637;SDS011;19045;52.268;10.506;2023-04-16T03:47:39;59.13;;;35.85;;
32637;SDS011;19045;52.268;10.506;2023-04-16T03:50:05;57.58;;;36.22;;
32637;SDS011;19045;52.268;10.506;2023-04-16T03:52:32;55.53;;;36.45;;
32637;SDS011;19045;52.268;10.506;2023-04-16T03:55:00;59.47;;;36.90;;
32637;SDS011;19045;52.268;10.506;2023-04-16T03:57:28;54.67;;;34.72;;
32637;SDS011;19045;52.268;10.506;2023-04-16T03:59:54;57.40;;;34.72;;
32637;SDS011;19045;52.268;10.506;2023-04-16T04:02:21;55.17;;;35.20;;
32637;SDS011;19045;52.268;10.506;2023-04-16T04:04:48;55.15;;;34.05;;
32637;SDS011;19045;52.268;10.506;2023-04-16T04:07:16;54.47;;;34.72;;
32637;SDS011;19045;52.268;10.506;2023-04-16T04:09:43;55.35;;;35.67;;
32637;SDS011;19045;52.268;10.506;2023-04-16T04:12:11;55.90;;;35.17;;
32637;SDS011;19045;52.268;10.506;2023-04-16T04:14:38;51.63;;;34.45;;
32637;SDS011;19045;52.268;10.506;2023-04-16T04:17:04;56.63;;;34.78;;
32637;SDS011;19045;52.268;10.506;2023-04-16T04:19:31;54.88;;;34.70;;
32637;SDS011;19045;52.268;10.506;2023-04-16T04:22:00;51.97;;;34.17;;
32637;SDS011;19045;52.268;10.506;2023-04-16T04:24:33;54.20;;;34.92;;
32637;SDS011;19045;52.268;10.506;2023-04-16T04:27:00;59.03;;;34.40;;
32637;SDS011;19045;52.268;10.506;2023-04-16T04:29:28;53.10;;;36.28;;
32637;SDS011;19045;52.268;10.506;2023-04-16T04:32:00;58.75;;;36.88;;
32637;SDS011;19045;52.268;10.506;2023-04-16T04:34:27;59.65;;;38.08;;
32637;SDS011;19045;52.268;10.506;2023-04-16T04:36:54;61.47;;;38.10;;
32637;SDS011;19045;52.268;10.506;2023-04-16T04:39:26;60.47;;;38.15;;
32637;SDS011;19045;52.268;10.506;2023-04-16T04:41:56;66.10;;;40.83;;
32637;SDS011;19045;52.268;10.506;2023-04-16T04:44:23;64.97;;;39.55;;
32637;SDS011;19045;52.268;10.506;2023-04-16T04:46:53;63.72;;;39.08;;
32637;SDS011;19045;52.268;10.506;2023-04-16T04:49:20;63.85;;;38.50;;
32637;SDS011;19045;52.268;10.506;2023-04-16T04:51:46;63.30;;;37.45;;
32637;SDS011;19045;52.268;10.506;2023-04-16T04:54:13;58.75;;;36.50;;
32637;SDS011;19045;52.268;10.506;2023-04-16T04:56:40;59.72;;;36.88;;
32637;SDS011;19045;52.268;10.506;2023-04-16T04:59:09;53.88;;;34.75;;
32637;SDS011;19045;52.268;10.506;2023-04-16T05:01:36;55.95;;;35.58;;
32637;SDS011;19045;52.268;10.506;2023-04-16T05:04:04;56.58;;;35.47;;
32637;SDS011;19045;52.268;10.506;2023-04-16T05:06:31;53.88;;;34.67;;
32637;SDS011;19045;52.268;10.506;2023-04-16T05:08:58;56.78;;;34.90;;
32637;SDS011;19045;52.268;10.506;2023-04-16T05:11:24;58.75;;;36.55;;
32637;SDS011;19045;52.268;10.506;2023-04-16T05:13:51;60.00;;;36.38;;
32637;SDS011;19045;52.268;10.506;2023-04-16T05:16:19;54.60;;;35.45;;
32637;SDS011;19045;52.268;10.506;2023-04-16T05:18:46;59.90;;;36.92;;
32637;SDS011;19045;52.268;10.506;2023-04-16T05:21:14;57.78;;;36.13;;
32637;SDS011;19045;52.268;10.506;2023-04-16T05:23:40;60.20;;;37.38;;
32637;SDS011;19045;52.268;10.506;2023-04-16T05:26:07;54.67;;;35.65;;
32637;SDS011;19045;52.268;10.506;2023-04-16T05:28:33;61.15;;;37.15;;
32637;SDS011;19045;52.268;10.506;2023-04-16T05:31:00;54.08;;;35.55;;
32637;SDS011;19045;52.268;10.506;2023-04-16T05:33:26;60.15;;;35.53;;
32637;SDS011;19045;52.268;10.506;2023-04-16T05:35:53;57.65;;;36.78;;
32637;SDS011;19045;52.268;10.506;2023-04-16T05:38:21;54.50;;;35.13;;
32637;SDS011;19045;52.268;10.506;2023-04-16T05:40:48;65.22;;;36.05;;
32637;SDS011;19045;52.268;10.506;2023-04-16T05:43:14;59.63;;;36.10;;
32637;SDS011;19045;52.268;10.506;2023-04-16T05:45:41;57.38;;;36.30;;
32637;SDS011;19045;52.268;10.506;2023-04-16T05:48:07;54.45;;;35.10;;
32637;SDS011;19045;52.268;10.506;2023-04-16T05:50:34;60.95;;;36.55;;
32637;SDS011;19045;52.268;10.506;2023-04-16T05:53:01;56.47;;;36.33;;
32637;SDS011;19045;52.268;10.506;2023-04-16T05:55:32;65.25;;;37.63;;
32637;SDS011;19045;52.268;10.506;2023-04-16T05:57:59;57.88;;;36.10;;
32637;SDS011;19045;52.268;10.506;2023-04-16T06:00:28;57.17;;;35.08;;
32637;SDS011;19045;52.268;10.506;2023-04-16T06:02:55;60.95;;;36.63;;
32637;SDS011;19045;52.268;10.506;2023-04-16T06:05:22;58.75;;;36.92;;
32637;SDS011;19045;52.268;10.506;2023-04-16T06:07:49;65.47;;;36.45;;
32637;SDS011;19045;52.268;10.506;2023-04-16T06:10:15;58.13;;;36.00;;
32637;SDS011;19045;52.268;10.506;2023-04-16T06:12:43;62.75;;;36.00;;
32637;SDS011;19045;52.268;10.506;2023-04-16T06:15:10;61.35;;;35.85;;
32637;SDS011;19045;52.268;10.506;2023-04-16T06:17:37;57.15;;;34.25;;
32637;SDS011;19045;52.268;10.506;2023-04-16T06:20:04;55.38;;;35.25;;
32637;SDS011;19045;52.268;10.506;2023-04-16T06:22:31;60.85;;;35.70;;
32637;SDS011;19045;52.268;10.506;2023-04-16T06:24:58;58.83;;;35.13;;
32637;SDS011;19045;52.268;10.506;2023-04-16T06:27:25;59.53;;;35.80;;
32637;SDS011;19045;52.268;10.506;2023-04-16T06:29:53;62.55;;;37.03;;
32637;SDS011;19045;52.268;10.506;2023-04-16T06:32:19;60.53;;;36.17;;
32637;SDS011;19045;52.268;10.506;2023-04-16T06:34:46;59.05;;;34.90;;
32637;SDS011;19045;52.268;10.506;2023-04-16T06:37:13;54.88;;;33.75;;
32637;SDS011;19045;52.268;10.506;2023-04-16T06:39:40;56.47;;;35.63;;
32637;SDS011;19045;52.268;10.506;2023-04-16T06:42:23;58.25;;;35.53;;
32637;SDS011;19045;52.268;10.506;2023-04-16T06:44:50;60.13;;;35.60;;
32637;SDS011;19045;52.268;10.506;2023-04-16T06:47:18;57.20;;;35.78;;
32637;SDS011;19045;52.268;10.506;2023-04-16T06:49:45;59.20;;;35.72;;
32637;SDS011;19045;52.268;10.506;2023-04-16T06:52:11;55.70;;;36.05;;
32637;SDS011;19045;52.268;10.506;2023-04-16T06:54:38;54.45;;;34.03;;
32637;SDS011;19045;52.268;10.506;2023-04-16T06:57:05;63.42;;;35.40;;
32637;SDS011;19045;52.268;10.506;2023-04-16T06:59:31;53.40;;;35.38;;
32637;SDS011;19045;52.268;10.506;2023-04-16T07:01:58;55.75;;;35.53;;
32637;SDS011;19045;52.268;10.506;2023-04-16T07:04:26;57.85;;;34.80;;
32637;SDS011;19045;52.268;10.506;2023-04-16T07:06:52;53.83;;;33.90;;
32637;SDS011;19045;52.268;10.506;2023-04-16T07:09:19;56.45;;;35.03;;
32637;SDS011;19045;52.268;10.506;2023-04-16T07:11:46;56.05;;;34.70;;
32637;SDS011;19045;52.268;10.506;2023-04-16T07:14:12;55.05;;;34.55;;
32637;SDS011;19045;52.268;10.506;2023-04-16T07:16:40;58.35;;;34.85;;
32637;SDS011;19045;52.268;10.506;2023-04-16T07:19:06;56.40;;;33.97;;
32637;SDS011;19045;52.268;10.506;2023-04-16T07:21:34;57.67;;;35.03;;
32637;SDS011;19045;52.268;10.506;2023-04-16T07:24:01;60.10;;;35.55;;
32637;SDS011;19045;52.268;10.506;2023-04-16T07:26:27;58.33;;;35.15;;
32637;SDS011;19045;52.268;10.506;2023-04-16T07:28:54;54.47;;;34.60;;
32637;SDS011;19045;52.268;10.506;2023-04-16T07:31:21;53.13;;;33.45;;
32637;SDS011;19045;52.268;10.506;2023-04-16T07:33:47;60.05;;;35.10;;
32637;SDS011;19045;52.268;10.506;2023-04-16T07:36:14;53.28;;;33.17;;
32637;SDS011;19045;52.268;10.506;2023-04-16T07:38:42;55.08;;;33.75;;
32637;SDS011;19045;52.268;10.506;2023-04-16T07:41:08;54.60;;;34.63;;
32637;SDS011;19045;52.268;10.506;2023-04-16T07:43:35;55.47;;;33.63;;
32637;SDS011;19045;52.268;10.506;2023-04-16T07:46:02;59.50;;;33.88;;
32637;SDS011;19045;52.268;10.506;2023-04-16T07:48:29;59.83;;;35.25;;
32637;SDS011;19045;52.268;10.506;2023-04-16T07:50:55;56.63;;;31.95;;
32637;SDS011;19045;52.268;10.506;2023-04-16T07:53:26;53.78;;;31.95;;
32637;SDS011;19045;52.268;10.506;2023-04-16T07:55:54;53.80;;;31.88;;
32637;SDS011;19045;52.268;10.506;2023-04-16T07:58:20;57.22;;;33.60;;
32637;SDS011;19045;52.268;10.506;2023-04-16T08:00:47;53.50;;;31.85;;
32637;SDS011;19045;52.268;10.506;2023-04-16T08:03:14;55.53;;;32.88;;
32637;SDS011;19045;52.268;10.506;2023-04-16T08:05:40;48.38;;;30.38;;
32637;SDS011;19045;52.268;10.506;2023-04-16T08:08:07;53.45;;;30.45;;
32637;SDS011;19045;52.268;10.506;2023-04-16T08:10:34;54.05;;;30.85;;
32637;SDS011;19045;52.268;10.506;2023-04-16T08:13:02;53.47;;;30.58;;
32637;SDS011;19045;52.268;10.506;2023-04-16T08:15:29;53.05;;;30.42;;
32637;SDS011;19045;52.268;10.506;2023-04-16T08:17:56;53.85;;;31.52;;
32637;SDS011;19045;52.268;10.506;2023-04-16T08:20:23;45.92;;;30.42;;
32637;SDS011;19045;52.268;10.506;2023-04-16T08:22:50;52.08;;;30.17;;
32637;SDS011;19045;52.268;10.506;2023-04-16T08:25:18;48.92;;;30.08;;
32637;SDS011;19045;52.268;10.506;2023-04-16T08:27:45;45.05;;;27.75;;
32637;SDS011;19045;52.268;10.506;2023-04-16T08:30:13;49.67;;;29.25;;
32637;SDS011;19045;52.268;10.506;2023-04-16T08:32:41;47.10;;;29.45;;
32637;SDS011;19045;52.268;10.506;2023-04-16T08:35:08;48.65;;;29.65;;
32637;SDS011;19045;52.268;10.506;2023-04-16T08:37:35;52.70;;;29.73;;
32637;SDS011;19045;52.268;10.506;2023-04-16T08:40:01;46.35;;;29.52;;
32637;SDS011;19045;52.268;10.506;2023-04-16T08:42:29;42.88;;;28.02;;
32637;SDS011;19045;52.268;10.506;2023-04-16T08:44:59;46.83;;;29.13;;
32637;SDS011;19045;52.268;10.506;2023-04-16T08:47:33;45.88;;;29.05;;
32637;SDS011;19045;52.268;10.506;2023-04-16T08:50:02;48.05;;;28.83;;
32637;SDS011;19045;52.268;10.506;2023-04-16T08:52:29;44.75;;;27.65;;
32637;SDS011;19045;52.268;10.506;2023-04-16T08:54:59;45.95;;;29.60;;
32637;SDS011;19045;52.268;10.506;2023-04-16T08:57:33;42.00;;;27.73;;
32637;SDS011;19045;52.268;10.506;2023-04-16T09:00:05;44.78;;;28.77;;
32637;SDS011;19045;52.268;10.506;2023-04-16T09:02:35;45.70;;;28.80;;
32637;SDS011;19045;52.268;10.506;2023-04-16T09:05:03;46.72;;;28.00;;
32637;SDS011;19045;52.268;10.506;2023-04-16T09:07:31;43.50;;;28.23;;
32637;SDS011;19045;52.268;10.506;2023-04-16T09:09:59;41.08;;;26.92;;
32637;SDS011;19045;52.268;10.506;2023-04-16T09:12:26;40.53;;;26.65;;
32637;SDS011;19045;52.268;10.506;2023-04-16T09:14:53;40.45;;;25.90;;
32637;SDS011;19045;52.268;10.506;2023-04-16T09:17:23;40.88;;;27.00;;
32637;SDS011;19045;52.268;10.506;2023-04-16T09:19:51;35.28;;;24.58;;
32637;SDS011;19045;52.268;10.506;2023-04-16T09:22:18;37.58;;;25.73;;
32637;SDS011;19045;52.268;10.506;2023-04-16T09:24:45;36.10;;;23.25;;
32637;SDS011;19045;52.268;10.506;2023-04-16T09:27:12;42.80;;;24.70;;
32637;SDS011;19045;52.268;10.506;2023-04-16T09:29:39;40.47;;;25.73;;
32637;SDS011;19045;52.268;10.506;2023-04-16T09:32:07;41.50;;;27.40;;
32637;SDS011;19045;52.268;10.506;2023-04-16T09:37:21;35.95;;;23.73;;
32637;SDS011;19045;52.268;10.506;2023-04-16T09:39:51;37.28;;;23.88;;
32637;SDS011;19045;52.268;10.506;2023-04-16T09:42:20;35.42;;;24.23;;
32637;SDS011;19045;52.268;10.506;2023-04-16T09:44:48;33.50;;;21.95;;
32637;SDS011;19045;52.268;10.506;2023-04-16T09:47:17;37.30;;;22.70;;
32637;SDS011;19045;52.268;10.506;2023-04-16T09:49:44;35.75;;;22.33;;
32637;SDS011;19045;52.268;10.506;2023-04-16T09:52:13;31.40;;;20.80;;
32637;SDS011;19045;52.268;10.506;2023-04-16T09:54:47;32.15;;;20.77;;
32637;SDS011;19045;52.268;10.506;2023-04-16T09:57:17;30.17;;;20.55;;
32637;SDS011;19045;52.268;10.506;2023-04-16T09:59:46;29.35;;;20.38;;
32637;SDS011;19045;52.268;10.506;2023-04-16T10:02:12;29.73;;;19.55;;
32637;SDS011;19045;52.268;10.506;2023-04-16T10:04:47;30.77;;;20.42;;
32637;SDS011;19045;52.268;10.506;2023-04-16T10:07:16;32.35;;;21.67;;
32637;SDS011;19045;52.268;10.506;2023-04-16T10:09:43;31.77;;;21.77;;
32637;SDS011;19045;52.268;10.506;2023-04-16T10:12:10;41.15;;;21.88;;
32637;SDS011;19045;52.268;10.506;2023-04-16T10:14:37;33.92;;;22.65;;
32637;SDS011;19045;52.268;10.506;2023-04-16T10:17:04;30.60;;;21.38;;
32637;SDS011;19045;52.268;10.506;2023-04-16T10:19:31;37.60;;;23.20;;
32637;SDS011;19045;52.268;10.506;2023-04-16T10:21:59;33.10;;;22.63;;
32637;SDS011;19045;52.268;10.506;2023-04-16T10:24:28;39.92;;;25.80;;
32637;SDS011;19045;52.268;10.506;2023-04-16T10:26:56;37.45;;;24.05;;
32637;SDS011;19045;52.268;10.506;2023-04-16T10:29:23;32.83;;;23.30;;
32637;SDS011;19045;52.268;10.506;2023-04-16T10:31:52;33.33;;;22.02;;
32637;SDS011;19045;52.268;10.506;2023-04-16T10:34:20;35.65;;;24.05;;
32637;SDS011;19045;52.268;10.506;2023-04-16T10:36:48;35.15;;;21.75;;
32637;SDS011;19045;52.268;10.506;2023-04-16T10:39:18;31.70;;;21.65;;
32637;SDS011;19045;52.268;10.506;2023-04-16T10:41:47;34.63;;;20.58;;
32637;SDS011;19045;52.268;10.506;2023-04-16T10:44:15;31.50;;;21.45;;
32637;SDS011;19045;52.268;10.506;2023-04-16T10:46:43;31.17;;;20.70;;
32637;SDS011;19045;52.268;10.506;2023-04-16T10:49:13;30.08;;;20.67;;
32637;SDS011;19045;52.268;10.506;2023-04-16T10:51:42;30.70;;;21.95;;
32637;SDS011;19045;52.268;10.506;2023-04-16T10:54:20;29.48;;;20.48;;
32637;SDS011;19045;52.268;10.506;2023-04-16T10:56:52;36.25;;;22.02;;
32637;SDS011;19045;52.268;10.506;2023-04-16T10:59:22;31.83;;;21.85;;
32637;SDS011;19045;52.268;10.506;2023-04-16T11:01:50;31.52;;;21.33;;
32637;SDS011;19045;52.268;10.506;2023-04-16T11:04:28;32.10;;;21.25;;
32637;SDS011;19045;52.268;10.506;2023-04-16T11:07:00;33.85;;;21.27;;
32637;SDS011;19045;52.268;10.506;2023-04-16T11:12:31;29.83;;;21.38;;
32637;SDS011;19045;52.268;10.506;2023-04-16T11:15:00;35.25;;;22.35;;
32637;SDS011;19045;52.268;10.506;2023-04-16T11:17:29;28.20;;;21.42;;
32637;SDS011;19045;52.268;10.506;2023-04-16T11:19:58;31.98;;;23.00;;
32637;SDS011;19045;52.268;10.506;2023-04-16T11:22:24;36.40;;;24.08;;
32637;SDS011;19045;52.268;10.506;2023-04-16T11:24:52;35.30;;;23.50;;
32637;SDS011;19045;52.268;10.506;2023-04-16T11:27:21;36.92;;;24.10;;
32637;SDS011;19045;52.268;10.506;2023-04-16T11:29:56;41.00;;;23.98;;
32637;SDS011;19045;52.268;10.506;2023-04-16T11:32:29;36.58;;;23.30;;
32637;SDS011;19045;52.268;10.506;2023-04-16T11:34:57;34.03;;;23.40;;
32637;SDS011;19045;52.268;10.506;2023-04-16T11:37:30;34.60;;;23.40;;
32637;SDS011;19045;52.268;10.506;2023-04-16T11:39:58;35.15;;;24.30;;
32637;SDS011;19045;52.268;10.506;2023-04-16T11:42:25;38.28;;;24.55;;
32637;SDS011;19045;52.268;10.506;2023-04-16T11:44:53;34.63;;;24.38;;
32637;SDS011;19045;52.268;10.506;2023-04-16T11:47:22;36.47;;;24.42;;
32637;SDS011;19045;52.268;10.506;2023-04-16T11:49:51;41.42;;;25.05;;
32637;SDS011;19045;52.268;10.506;2023-04-16T11:52:24;38.95;;;25.58;;
32637;SDS011;19045;52.268;10.506;2023-04-16T11:54:52;40.30;;;25.63;;
32637;SDS011;19045;52.268;10.506;2023-04-16T11:57:25;36.22;;;24.85;;
32637;SDS011;19045;52.268;10.506;2023-04-16T11:59:53;38.40;;;25.58;;
32637;SDS011;19045;52.268;10.506;2023-04-16T12:02:37;35.70;;;24.48;;
32637;SDS011;19045;52.268;10.506;2023-04-16T12:05:05;38.05;;;25.40;;
32637;SDS011;19045;52.268;10.506;2023-04-16T12:07:50;39.25;;;24.95;;
32637;SDS011;19045;52.268;10.506;2023-04-16T12:10:17;38.50;;;25.60;;
32637;SDS011;19045;52.268;10.506;2023-04-16T12:12:44;38.95;;;27.98;;
32637;SDS011;19045;52.268;10.506;2023-04-16T12:15:10;41.47;;;25.70;;
32637;SDS011;19045;52.268;10.506;2023-04-16T12:17:38;42.80;;;27.05;;
32637;SDS011;19045;52.268;10.506;2023-04-16T12:20:07;40.80;;;26.40;;
32637;SDS011;19045;52.268;10.506;2023-04-16T12:22:35;37.83;;;26.27;;
32637;SDS011;19045;52.268;10.506;2023-04-16T12:25:04;38.72;;;23.80;;
32637;SDS011;19045;52.268;10.506;2023-04-16T12:27:45;31.60;;;22.35;;
32637;SDS011;19045;52.268;10.506;2023-04-16T12:30:13;31.38;;;20.85;;
32637;SDS011;19045;52.268;10.506;2023-04-16T12:32:42;33.28;;;21.42;;
32637;SDS011;19045;52.268;10.506;2023-04-16T12:35:10;30.10;;;20.63;;
32637;SDS011;19045;52.268;10.506;2023-04-16T12:37:37;30.48;;;20.20;;
32637;SDS011;19045;52.268;10.506;2023-04-16T12:40:04;32.65;;;21.25;;
32637;SDS011;19045;52.268;10.506;2023-04-16T12:42:32;32.10;;;20.58;;
32637;SDS011;19045;52.268;10.506;2023-04-16T12:45:00;29.85;;;20.30;;
32637;SDS011;19045;52.268;10.506;2023-04-16T12:47:28;29.45;;;20.70;;
32637;SDS011;19045;52.268;10.506;2023-04-16T12:49:58;32.22;;;20.75;;
32637;SDS011;19045;52.268;10.506;2023-04-16T12:52:25;31.63;;;20.38;;
32637;SDS011;19045;52.268;10.506;2023-04-16T12:54:52;29.10;;;19.85;;
32637;SDS011;19045;52.268;10.506;2023-04-16T12:57:18;28.27;;;20.80;;
32637;SDS011;19045;52.268;10.506;2023-04-16T12:59:45;29.17;;;21.10;;
32637;SDS011;19045;52.268;10.506;2023-04-16T13:02:12;46.05;;;27.58;;
32637;SDS011;19045;52.268;10.506;2023-04-16T13:04:38;36.78;;;24.33;;
32637;SDS011;19045;52.268;10.506;2023-04-16T13:07:06;35.63;;;24.90;;
32637;SDS011;19045;52.268;10.506;2023-04-16T13:09:33;35.72;;;23.45;;
32637;SDS011;19045;52.268;10.506;2023-04-16T13:12:00;30.48;;;21.85;;
32637;SDS011;19045;52.268;10.506;2023-04-16T13:14:26;31.67;;;22.55;;
32637;SDS011;19045;52.268;10.506;2023-04-16T13:16:54;33.25;;;22.33;;
32637;SDS011;19045;52.268;10.506;2023-04-16T13:19:21;34.75;;;22.75;;
32637;SDS011;19045;52.268;10.506;2023-04-16T13:21:47;35.60;;;22.60;;
32637;SDS011;19045;52.268;10.506;2023-04-16T13:24:15;39.97;;;26.27;;
32637;SDS011;19045;52.268;10.506;2023-04-16T13:26:43;41.58;;;24.83;;
32637;SDS011;19045;52.268;10.506;2023-04-16T13:29:09;32.13;;;23.85;;
32637;SDS011;19045;52.268;10.506;2023-04-16T13:31:37;38.47;;;24.30;;
32637;SDS011;19045;52.268;10.506;2023-04-16T13:34:04;32.45;;;21.58;;
32637;SDS011;19045;52.268;10.506;2023-04-16T13:36:30;29.27;;;20.30;;
32637;SDS011;19045;52.268;10.506;2023-04-16T13:38:57;29.13;;;20.58;;
32637;SDS011;19045;52.268;10.506;2023-04-16T13:41:25;32.47;;;19.92;;
32637;SDS011;19045;52.268;10.506;2023-04-16T13:43:52;32.25;;;20.73;;
32637;SDS011;19045;52.268;10.506;2023-04-16T13:46:19;28.95;;;19.13;;
32637;SDS011;19045;52.268;10.506;2023-04-16T13:48:46;26.83;;;19.73;;
32637;SDS011;19045;52.268;10.506;2023-04-16T13:51:12;27.23;;;19.23;;
32637;SDS011;19045;52.268;10.506;2023-04-16T13:53:39;28.65;;;19.50;;
32637;SDS011;19045;52.268;10.506;2023-04-16T13:56:06;27.05;;;18.02;;
32637;SDS011;19045;52.268;10.506;2023-04-16T13:58:34;26.45;;;17.73;;
32637;SDS011;19045;52.268;10.506;2023-04-16T14:01:01;26.52;;;18.58;;
32637;SDS011;19045;52.268;10.506;2023-04-16T14:03:27;26.83;;;18.45;;
32637;SDS011;19045;52.268;10.506;2023-04-16T14:05:54;23.88;;;17.40;;
32637;SDS011;19045;52.268;10.506;2023-04-16T14:08:21;26.30;;;18.02;;
32637;SDS011;19045;52.268;10.506;2023-04-16T14:10:47;24.98;;;18.27;;
32637;SDS011;19045;52.268;10.506;2023-04-16T14:13:14;26.75;;;17.67;;
32637;SDS011;19045;52.268;10.506;2023-04-16T14:15:42;22.27;;;16.73;;
32637;SDS011;19045;52.268;10.506;2023-04-16T14:18:08;25.13;;;17.30;;